KLSE/LSE METAR and TAF weather

Enter ICAO airport designator
Station Type Date Time Source
KLSE METAR 2021/01/17 18:53 UTC NOAA

KLSE 171853Z 32008KT 10SM OVC018 M01/M04 A2974 RMK AO2 SLP084 T10061044


Station Type Date Time Source
KLSE Decoded METAR 2021/01/17 18:53 UTC NOAA

LA CROSSE MUNICIPAL AIRPORT , WI, United States (KLSE) 43-53N 091-15W 200M
Jan 17, 2021 - 01:53 PM EST / 2021.01.17 1853 UTC
Wind: from the NW (320 degrees) at 9 MPH (8 KT):0
Visibility: 10 mile(s):0
Sky conditions: overcast
Temperature: 30.9 F (-0.6 C)
Windchill: 23 F (-5 C):1
Dew Point: 24.1 F (-4.4 C)
Relative Humidity: 75%
Pressure (altimeter): 29.74 in. Hg (1007 hPa)
ob: KLSE 171853Z 32008KT 10SM OVC018 M01/M04 A2974 RMK AO2 SLP084 T10061044
cycle: 19

Station Type Date Time Source
KLSE TAF 2021/01/17 18:40 UTC NOAA

TAF KLSE 171738Z 1718/1818 31008KT P6SM OVC015
FM180800 29004KT P6SM VCSH SCT018 OVC025

Example: see airport list